sensor_id;sensor_type;location;lat;lon;timestamp;pressure;altitude;pressure_sealevel;temperature;humidity
75945;BME280;64628;50.104;14.614;2023-07-20T00:00:50;98132.66;;;21.40;36.98
75945;BME280;64628;50.104;14.614;2023-07-20T00:03:15;98138.65;;;21.59;37.21
75945;BME280;64628;50.104;14.614;2023-07-20T00:05:40;98147.00;;;21.06;37.33
75945;BME280;64628;50.104;14.614;2023-07-20T00:08:05;98153.46;;;21.45;37.47
75945;BME280;64628;50.104;14.614;2023-07-20T00:10:30;98152.83;;;21.43;37.58
75945;BME280;64628;50.104;14.614;2023-07-20T00:12:56;98150.27;;;21.20;37.65
75945;BME280;64628;50.104;14.614;2023-07-20T00:15:21;98162.12;;;21.14;37.83
75945;BME280;64628;50.104;14.614;2023-07-20T00:17:47;98175.48;;;21.31;37.83
75945;BME280;64628;50.104;14.614;2023-07-20T00:20:12;98178.44;;;20.84;38.08
75945;BME280;64628;50.104;14.614;2023-07-20T00:22:37;98174.83;;;21.24;37.69
75945;BME280;64628;50.104;14.614;2023-07-20T00:25:03;98170.63;;;21.58;37.03
75945;BME280;64628;50.104;14.614;2023-07-20T00:27:29;98166.77;;;21.28;36.52
75945;BME280;64628;50.104;14.614;2023-07-20T00:29:53;98170.02;;;21.69;36.25
75945;BME280;64628;50.104;14.614;2023-07-20T00:32:19;98175.43;;;22.05;36.20
75945;BME280;64628;50.104;14.614;2023-07-20T00:34:44;98178.85;;;21.72;35.98
75945;BME280;64628;50.104;14.614;2023-07-20T00:37:09;98177.70;;;22.28;35.70
75945;BME280;64628;50.104;14.614;2023-07-20T00:39:34;98177.44;;;21.82;35.93
75945;BME280;64628;50.104;14.614;2023-07-20T00:41:59;98180.65;;;21.85;36.00
75945;BME280;64628;50.104;14.614;2023-07-20T00:44:24;98179.16;;;21.89;35.91
75945;BME280;64628;50.104;14.614;2023-07-20T00:46:49;98177.59;;;21.82;35.69
75945;BME280;64628;50.104;14.614;2023-07-20T00:49:15;98175.17;;;21.42;35.81
75945;BME280;64628;50.104;14.614;2023-07-20T00:51:40;98174.80;;;21.89;35.87
75945;BME280;64628;50.104;14.614;2023-07-20T00:54:05;98173.35;;;21.64;35.92
75945;BME280;64628;50.104;14.614;2023-07-20T00:56:30;98172.56;;;21.58;36.08
75945;BME280;64628;50.104;14.614;2023-07-20T00:58:55;98174.05;;;21.56;36.17
75945;BME280;64628;50.104;14.614;2023-07-20T01:01:21;98179.94;;;21.96;36.31
75945;BME280;64628;50.104;14.614;2023-07-20T01:03:45;98186.75;;;21.41;36.41
75945;BME280;64628;50.104;14.614;2023-07-20T01:06:21;98186.18;;;21.37;36.44
75945;BME280;64628;50.104;14.614;2023-07-20T01:08:42;98186.27;;;21.53;36.54
75945;BME280;64628;50.104;14.614;2023-07-20T01:11:06;98192.84;;;21.24;36.65
75945;BME280;64628;50.104;14.614;2023-07-20T01:13:27;98193.62;;;21.26;36.61
75945;BME280;64628;50.104;14.614;2023-07-20T01:15:56;98192.50;;;21.67;36.79
75945;BME280;64628;50.104;14.614;2023-07-20T01:18:17;98190.89;;;21.18;36.65
75945;BME280;64628;50.104;14.614;2023-07-20T01:20:42;98190.60;;;21.39;36.78
75945;BME280;64628;50.104;14.614;2023-07-20T01:23:27;98199.21;;;21.37;36.79
75945;BME280;64628;50.104;14.614;2023-07-20T01:25:46;98204.99;;;21.32;36.71
75945;BME280;64628;50.104;14.614;2023-07-20T01:28:14;98201.74;;;21.50;36.88
75945;BME280;64628;50.104;14.614;2023-07-20T01:30:41;98197.81;;;21.21;37.08
75945;BME280;64628;50.104;14.614;2023-07-20T01:32:49;98194.71;;;21.40;37.23
75945;BME280;64628;50.104;14.614;2023-07-20T01:35:14;98194.69;;;21.33;37.50
75945;BME280;64628;50.104;14.614;2023-07-20T01:37:40;98199.81;;;21.35;37.70
75945;BME280;64628;50.104;14.614;2023-07-20T01:40:06;98200.63;;;21.11;37.72
75945;BME280;64628;50.104;14.614;2023-07-20T01:42:29;98200.79;;;21.37;37.53
75945;BME280;64628;50.104;14.614;2023-07-20T01:44:54;98198.41;;;21.17;37.51
75945;BME280;64628;50.104;14.614;2023-07-20T01:47:20;98201.61;;;21.15;37.57
75945;BME280;64628;50.104;14.614;2023-07-20T01:49:45;98212.78;;;21.21;37.42
75945;BME280;64628;50.104;14.614;2023-07-20T01:52:10;98216.57;;;21.47;37.62
75945;BME280;64628;50.104;14.614;2023-07-20T01:54:35;98215.94;;;21.23;37.83
75945;BME280;64628;50.104;14.614;2023-07-20T01:57:00;98213.28;;;21.18;37.90
75945;BME280;64628;50.104;14.614;2023-07-20T01:59:25;98214.34;;;21.45;37.69
75945;BME280;64628;50.104;14.614;2023-07-20T02:01:51;98209.36;;;21.48;37.79
75945;BME280;64628;50.104;14.614;2023-07-20T02:04:16;98206.46;;;21.04;37.62
75945;BME280;64628;50.104;14.614;2023-07-20T02:06:41;98203.60;;;21.23;37.60
75945;BME280;64628;50.104;14.614;2023-07-20T02:09:07;98200.06;;;21.51;37.63
75945;BME280;64628;50.104;14.614;2023-07-20T02:11:32;98196.90;;;21.27;37.44
75945;BME280;64628;50.104;14.614;2023-07-20T02:13:57;98195.93;;;21.01;37.27
75945;BME280;64628;50.104;14.614;2023-07-20T02:16:22;98194.97;;;21.27;37.40
75945;BME280;64628;50.104;14.614;2023-07-20T02:18:47;98195.76;;;21.27;37.48
75945;BME280;64628;50.104;14.614;2023-07-20T02:21:12;98193.23;;;21.46;37.39
75945;BME280;64628;50.104;14.614;2023-07-20T02:23:38;98188.71;;;21.37;37.50
75945;BME280;64628;50.104;14.614;2023-07-20T02:26:03;98190.50;;;21.09;37.43
75945;BME280;64628;50.104;14.614;2023-07-20T02:28:28;98194.08;;;21.04;37.65
75945;BME280;64628;50.104;14.614;2023-07-20T02:30:53;98198.94;;;21.26;37.78
75945;BME280;64628;50.104;14.614;2023-07-20T02:33:18;98197.01;;;20.90;37.95
75945;BME280;64628;50.104;14.614;2023-07-20T02:35:43;98195.29;;;21.06;37.98
75945;BME280;64628;50.104;14.614;2023-07-20T02:38:09;98200.96;;;20.96;38.09
75945;BME280;64628;50.104;14.614;2023-07-20T02:40:34;98210.82;;;20.59;38.28
75945;BME280;64628;50.104;14.614;2023-07-20T02:42:59;98210.10;;;20.68;38.37
75945;BME280;64628;50.104;14.614;2023-07-20T02:45:24;98211.77;;;20.58;38.39
75945;BME280;64628;50.104;14.614;2023-07-20T02:47:49;98214.07;;;20.52;38.48
75945;BME280;64628;50.104;14.614;2023-07-20T02:50:14;98211.48;;;20.43;38.61
75945;BME280;64628;50.104;14.614;2023-07-20T02:52:45;98211.26;;;20.57;38.78
75945;BME280;64628;50.104;14.614;2023-07-20T02:55:05;98209.43;;;20.28;38.90
75945;BME280;64628;50.104;14.614;2023-07-20T02:57:30;98211.79;;;20.49;38.91
75945;BME280;64628;50.104;14.614;2023-07-20T02:59:56;98214.79;;;20.67;38.91
75945;BME280;64628;50.104;14.614;2023-07-20T03:02:20;98219.80;;;20.38;39.11
75945;BME280;64628;50.104;14.614;2023-07-20T03:04:46;98220.65;;;20.40;39.21
75945;BME280;64628;50.104;14.614;2023-07-20T03:07:10;98220.16;;;20.55;39.41
75945;BME280;64628;50.104;14.614;2023-07-20T03:09:36;98223.64;;;20.20;39.95
75945;BME280;64628;50.104;14.614;2023-07-20T03:12:01;98220.53;;;19.86;40.43
75945;BME280;64628;50.104;14.614;2023-07-20T03:14:26;98227.58;;;20.08;40.90
75945;BME280;64628;50.104;14.614;2023-07-20T03:16:52;98227.00;;;19.45;41.14
75945;BME280;64628;50.104;14.614;2023-07-20T03:19:17;98230.68;;;19.59;41.38
75945;BME280;64628;50.104;14.614;2023-07-20T03:21:42;98228.95;;;19.78;41.54
75945;BME280;64628;50.104;14.614;2023-07-20T03:24:08;98231.85;;;19.76;41.58
75945;BME280;64628;50.104;14.614;2023-07-20T03:26:32;98232.26;;;19.71;41.72
75945;BME280;64628;50.104;14.614;2023-07-20T03:28:58;98232.64;;;19.71;41.77
75945;BME280;64628;50.104;14.614;2023-07-20T03:31:23;98235.33;;;19.19;41.90
75945;BME280;64628;50.104;14.614;2023-07-20T03:33:49;98233.58;;;19.67;41.87
75945;BME280;64628;50.104;14.614;2023-07-20T03:36:14;98237.06;;;19.67;41.79
75945;BME280;64628;50.104;14.614;2023-07-20T03:38:39;98237.02;;;19.53;41.69
75945;BME280;64628;50.104;14.614;2023-07-20T03:41:05;98233.13;;;19.83;41.77
75945;BME280;64628;50.104;14.614;2023-07-20T03:43:30;98235.33;;;19.91;41.73
75945;BME280;64628;50.104;14.614;2023-07-20T03:45:56;98241.18;;;19.75;41.57
75945;BME280;64628;50.104;14.614;2023-07-20T03:48:23;98237.98;;;20.10;41.66
75945;BME280;64628;50.104;14.614;2023-07-20T03:50:48;98237.11;;;19.97;41.66
75945;BME280;64628;50.104;14.614;2023-07-20T03:53:12;98237.80;;;19.79;41.64
75945;BME280;64628;50.104;14.614;2023-07-20T03:55:37;98241.67;;;20.34;41.21
75945;BME280;64628;50.104;14.614;2023-07-20T03:58:03;98248.19;;;20.06;41.02
75945;BME280;64628;50.104;14.614;2023-07-20T04:00:28;98249.74;;;20.18;41.19
75945;BME280;64628;50.104;14.614;2023-07-20T04:02:54;98247.94;;;20.32;41.17
75945;BME280;64628;50.104;14.614;2023-07-20T04:05:19;98250.28;;;20.16;41.00
75945;BME280;64628;50.104;14.614;2023-07-20T04:07:44;98249.28;;;20.23;40.69
75945;BME280;64628;50.104;14.614;2023-07-20T04:10:10;98251.17;;;20.55;40.68
75945;BME280;64628;50.104;14.614;2023-07-20T04:12:35;98254.19;;;20.42;40.51
75945;BME280;64628;50.104;14.614;2023-07-20T04:15:01;98253.25;;;20.50;40.47
75945;BME280;64628;50.104;14.614;2023-07-20T04:17:25;98257.15;;;20.61;40.29
75945;BME280;64628;50.104;14.614;2023-07-20T04:19:51;98259.84;;;20.44;40.21
75945;BME280;64628;50.104;14.614;2023-07-20T04:22:17;98263.40;;;20.72;39.87
75945;BME280;64628;50.104;14.614;2023-07-20T04:24:43;98262.19;;;20.79;39.59
75945;BME280;64628;50.104;14.614;2023-07-20T04:27:08;98260.51;;;20.94;39.27
75945;BME280;64628;50.104;14.614;2023-07-20T04:29:33;98260.95;;;21.05;39.05
75945;BME280;64628;50.104;14.614;2023-07-20T04:31:59;98263.47;;;21.11;38.89
75945;BME280;64628;50.104;14.614;2023-07-20T04:34:24;98261.58;;;21.05;38.75
75945;BME280;64628;50.104;14.614;2023-07-20T04:36:49;98261.15;;;21.31;38.54
75945;BME280;64628;50.104;14.614;2023-07-20T04:39:15;98261.74;;;21.46;38.38
75945;BME280;64628;50.104;14.614;2023-07-20T04:41:40;98265.40;;;21.61;38.17
75945;BME280;64628;50.104;14.614;2023-07-20T04:44:05;98266.64;;;21.45;38.10
75945;BME280;64628;50.104;14.614;2023-07-20T04:46:30;98268.75;;;21.64;38.19
75945;BME280;64628;50.104;14.614;2023-07-20T04:48:56;98267.17;;;21.38;38.29
75945;BME280;64628;50.104;14.614;2023-07-20T04:51:21;98271.82;;;21.74;38.12
75945;BME280;64628;50.104;14.614;2023-07-20T04:53:47;98271.85;;;21.57;38.10
75945;BME280;64628;50.104;14.614;2023-07-20T04:56:12;98271.52;;;21.48;38.01
75945;BME280;64628;50.104;14.614;2023-07-20T04:58:37;98265.68;;;21.86;37.97
75945;BME280;64628;50.104;14.614;2023-07-20T05:01:02;98269.05;;;21.69;37.52
75945;BME280;64628;50.104;14.614;2023-07-20T05:03:27;98269.61;;;21.79;37.36
75945;BME280;64628;50.104;14.614;2023-07-20T05:05:53;98266.21;;;21.87;37.46
75945;BME280;64628;50.104;14.614;2023-07-20T05:08:18;98267.40;;;21.94;37.27
75945;BME280;64628;50.104;14.614;2023-07-20T05:10:43;98267.17;;;22.13;37.10
75945;BME280;64628;50.104;14.614;2023-07-20T05:13:08;98270.54;;;22.10;36.82
75945;BME280;64628;50.104;14.614;2023-07-20T05:15:33;98265.81;;;22.31;36.46
75945;BME280;64628;50.104;14.614;2023-07-20T05:17:58;98264.75;;;22.05;36.37
75945;BME280;64628;50.104;14.614;2023-07-20T05:20:23;98263.64;;;22.32;36.19
75945;BME280;64628;50.104;14.614;2023-07-20T05:22:49;98264.14;;;22.67;36.14
75945;BME280;64628;50.104;14.614;2023-07-20T05:25:14;98267.00;;;22.26;36.26
75945;BME280;64628;50.104;14.614;2023-07-20T05:27:40;98262.77;;;22.59;36.11
75945;BME280;64628;50.104;14.614;2023-07-20T05:30:06;98265.69;;;22.70;35.81
75945;BME280;64628;50.104;14.614;2023-07-20T05:32:29;98273.72;;;22.77;35.56
75945;BME280;64628;50.104;14.614;2023-07-20T05:34:54;98279.93;;;22.98;35.38
75945;BME280;64628;50.104;14.614;2023-07-20T05:37:20;98275.84;;;23.56;34.95
75945;BME280;64628;50.104;14.614;2023-07-20T05:39:45;98274.84;;;22.91;34.57
75945;BME280;64628;50.104;14.614;2023-07-20T05:42:10;98271.47;;;22.80;34.70
75945;BME280;64628;50.104;14.614;2023-07-20T05:44:35;98272.26;;;22.96;34.58
75945;BME280;64628;50.104;14.614;2023-07-20T05:47:01;98271.28;;;23.07;34.37
75945;BME280;64628;50.104;14.614;2023-07-20T05:49:26;98272.40;;;23.05;34.58
75945;BME280;64628;50.104;14.614;2023-07-20T05:51:51;98273.27;;;23.64;33.98
75945;BME280;64628;50.104;14.614;2023-07-20T05:54:17;98271.14;;;23.21;34.14
75945;BME280;64628;50.104;14.614;2023-07-20T05:56:41;98271.41;;;23.11;34.13
75945;BME280;64628;50.104;14.614;2023-07-20T05:59:06;98275.80;;;23.58;33.76
75945;BME280;64628;50.104;14.614;2023-07-20T06:01:31;98280.65;;;23.68;34.03
75945;BME280;64628;50.104;14.614;2023-07-20T06:03:56;98277.70;;;24.12;33.14
75945;BME280;64628;50.104;14.614;2023-07-20T06:06:21;98278.93;;;24.00;32.65
75945;BME280;64628;50.104;14.614;2023-07-20T06:08:47;98279.20;;;23.92;32.74
75945;BME280;64628;50.104;14.614;2023-07-20T06:11:12;98286.52;;;23.99;32.84
75945;BME280;64628;50.104;14.614;2023-07-20T06:13:39;98288.30;;;24.32;32.64
75945;BME280;64628;50.104;14.614;2023-07-20T06:16:03;98293.72;;;23.97;32.42
75945;BME280;64628;50.104;14.614;2023-07-20T06:18:28;98296.84;;;24.11;32.67
75945;BME280;64628;50.104;14.614;2023-07-20T06:20:53;98298.96;;;24.15;32.70
75945;BME280;64628;50.104;14.614;2023-07-20T06:23:19;98292.44;;;24.18;32.17
75945;BME280;64628;50.104;14.614;2023-07-20T06:25:44;98288.77;;;24.33;32.18
75945;BME280;64628;50.104;14.614;2023-07-20T06:28:08;98293.27;;;24.74;31.80
75945;BME280;64628;50.104;14.614;2023-07-20T06:30:34;98296.01;;;24.60;31.87
75945;BME280;64628;50.104;14.614;2023-07-20T06:32:59;98294.40;;;25.23;31.40
75945;BME280;64628;50.104;14.614;2023-07-20T06:35:24;98300.29;;;25.34;30.75
75945;BME280;64628;50.104;14.614;2023-07-20T06:37:49;98298.20;;;25.21;30.80
75945;BME280;64628;50.104;14.614;2023-07-20T06:40:15;98297.75;;;25.74;30.15
75945;BME280;64628;50.104;14.614;2023-07-20T06:42:39;98294.68;;;25.83;29.91
75945;BME280;64628;50.104;14.614;2023-07-20T06:45:05;98294.32;;;25.78;29.47
75945;BME280;64628;50.104;14.614;2023-07-20T06:47:29;98295.64;;;26.06;29.38
75945;BME280;64628;50.104;14.614;2023-07-20T06:49:54;98293.75;;;25.76;29.39
75945;BME280;64628;50.104;14.614;2023-07-20T06:52:19;98291.16;;;26.45;29.02
75945;BME280;64628;50.104;14.614;2023-07-20T06:54:46;98287.54;;;26.69;28.80
75945;BME280;64628;50.104;14.614;2023-07-20T06:57:11;98284.33;;;27.36;28.21
75945;BME280;64628;50.104;14.614;2023-07-20T06:59:37;98283.27;;;30.26;24.41
75945;BME280;64628;50.104;14.614;2023-07-20T07:02:03;98277.77;;;32.74;21.74
75945;BME280;64628;50.104;14.614;2023-07-20T07:04:29;98276.30;;;34.23;19.59
75945;BME280;64628;50.104;14.614;2023-07-20T07:06:54;98278.52;;;35.65;18.41
75945;BME280;64628;50.104;14.614;2023-07-20T07:09:20;98276.11;;;36.19;17.70
75945;BME280;64628;50.104;14.614;2023-07-20T07:11:46;98280.79;;;34.95;18.25
75945;BME280;64628;50.104;14.614;2023-07-20T07:14:12;98281.40;;;33.84;18.86
75945;BME280;64628;50.104;14.614;2023-07-20T07:16:37;98284.84;;;33.48;19.72
75945;BME280;64628;50.104;14.614;2023-07-20T07:19:03;98289.76;;;32.60;20.26
75945;BME280;64628;50.104;14.614;2023-07-20T07:21:28;98292.78;;;32.58;20.38
75945;BME280;64628;50.104;14.614;2023-07-20T07:23:54;98293.21;;;33.92;19.34
75945;BME280;64628;50.104;14.614;2023-07-20T07:26:20;98298.91;;;34.99;18.33
75945;BME280;64628;50.104;14.614;2023-07-20T07:28:45;98295.53;;;34.23;18.63
75945;BME280;64628;50.104;14.614;2023-07-20T07:31:11;98293.42;;;32.83;20.20
75945;BME280;64628;50.104;14.614;2023-07-20T07:33:37;98293.32;;;32.98;20.03
75945;BME280;64628;50.104;14.614;2023-07-20T07:36:03;98284.64;;;32.02;20.68
75945;BME280;64628;50.104;14.614;2023-07-20T07:38:28;98288.49;;;31.81;20.60
75945;BME280;64628;50.104;14.614;2023-07-20T07:40:59;98288.54;;;33.44;18.68
75945;BME280;64628;50.104;14.614;2023-07-20T07:43:20;98289.32;;;34.64;17.69
75945;BME280;64628;50.104;14.614;2023-07-20T07:45:53;98288.69;;;36.08;16.41
75945;BME280;64628;50.104;14.614;2023-07-20T07:48:11;98290.74;;;37.94;15.39
75945;BME280;64628;50.104;14.614;2023-07-20T07:50:37;98287.41;;;37.99;14.65
75945;BME280;64628;50.104;14.614;2023-07-20T07:53:02;98293.36;;;37.82;14.96
75945;BME280;64628;50.104;14.614;2023-07-20T07:55:42;98289.26;;;37.27;15.28
75945;BME280;64628;50.104;14.614;2023-07-20T07:57:54;98291.91;;;35.73;15.89
75945;BME280;64628;50.104;14.614;2023-07-20T08:00:19;98299.08;;;34.85;17.11
75945;BME280;64628;50.104;14.614;2023-07-20T08:02:45;98302.89;;;33.85;18.03
75945;BME280;64628;50.104;14.614;2023-07-20T08:05:10;98303.30;;;32.59;19.06
75945;BME280;64628;50.104;14.614;2023-07-20T08:07:41;98295.75;;;32.11;20.01
75945;BME280;64628;50.104;14.614;2023-07-20T08:10:13;98303.25;;;31.96;20.09
75945;BME280;64628;50.104;14.614;2023-07-20T08:12:27;98301.52;;;31.70;19.97
75945;BME280;64628;50.104;14.614;2023-07-20T08:14:53;98306.20;;;31.20;20.41
75945;BME280;64628;50.104;14.614;2023-07-20T08:17:20;98305.25;;;31.01;20.57
75945;BME280;64628;50.104;14.614;2023-07-20T08:19:50;98307.65;;;30.35;20.99
75945;BME280;64628;50.104;14.614;2023-07-20T08:22:10;98310.14;;;30.31;21.78
75945;BME280;64628;50.104;14.614;2023-07-20T08:24:44;98312.80;;;29.39;21.76
75945;BME280;64628;50.104;14.614;2023-07-20T08:27:04;98313.88;;;29.64;21.49
75945;BME280;64628;50.104;14.614;2023-07-20T08:29:28;98314.59;;;29.81;21.15
75945;BME280;64628;50.104;14.614;2023-07-20T08:31:53;98313.71;;;29.59;21.67
75945;BME280;64628;50.104;14.614;2023-07-20T08:34:19;98313.60;;;29.83;22.20
75945;BME280;64628;50.104;14.614;2023-07-20T08:36:45;98315.18;;;30.36;21.50
75945;BME280;64628;50.104;14.614;2023-07-20T08:39:11;98321.29;;;30.28;21.07
75945;BME280;64628;50.104;14.614;2023-07-20T08:41:37;98315.88;;;31.31;20.20
75945;BME280;64628;50.104;14.614;2023-07-20T08:44:02;98314.60;;;32.58;19.05
75945;BME280;64628;50.104;14.614;2023-07-20T08:46:29;98318.35;;;33.03;18.63
75945;BME280;64628;50.104;14.614;2023-07-20T08:48:54;98322.94;;;32.73;18.73
75945;BME280;64628;50.104;14.614;2023-07-20T08:51:20;98321.76;;;32.19;19.40
75945;BME280;64628;50.104;14.614;2023-07-20T08:53:45;98324.31;;;31.44;19.80
75945;BME280;64628;50.104;14.614;2023-07-20T08:56:11;98327.82;;;30.77;20.53
75945;BME280;64628;50.104;14.614;2023-07-20T08:58:36;98323.73;;;30.06;20.92
75945;BME280;64628;50.104;14.614;2023-07-20T09:01:02;98321.09;;;30.08;21.74
75945;BME280;64628;50.104;14.614;2023-07-20T09:03:28;98316.87;;;30.43;21.76
75945;BME280;64628;50.104;14.614;2023-07-20T09:05:54;98314.09;;;30.04;21.02
75945;BME280;64628;50.104;14.614;2023-07-20T09:08:19;98314.85;;;29.84;21.86
75945;BME280;64628;50.104;14.614;2023-07-20T09:10:45;98310.13;;;29.31;21.69
75945;BME280;64628;50.104;14.614;2023-07-20T09:13:14;98311.21;;;29.44;22.55
75945;BME280;64628;50.104;14.614;2023-07-20T09:15:36;98304.78;;;30.54;21.83
75945;BME280;64628;50.104;14.614;2023-07-20T09:18:02;98304.51;;;30.59;19.56
75945;BME280;64628;50.104;14.614;2023-07-20T09:20:32;98301.65;;;30.99;20.03
75945;BME280;64628;50.104;14.614;2023-07-20T09:22:54;98304.40;;;30.25;20.17
75945;BME280;64628;50.104;14.614;2023-07-20T09:25:19;98311.33;;;30.22;20.74
75945;BME280;64628;50.104;14.614;2023-07-20T09:27:46;98311.11;;;29.89;20.67
75945;BME280;64628;50.104;14.614;2023-07-20T09:30:12;98307.91;;;28.91;21.46
75945;BME280;64628;50.104;14.614;2023-07-20T09:32:42;98303.65;;;29.77;21.60
75945;BME280;64628;50.104;14.614;2023-07-20T09:35:03;98301.27;;;29.91;21.15
75945;BME280;64628;50.104;14.614;2023-07-20T09:37:28;98303.81;;;30.31;20.72
75945;BME280;64628;50.104;14.614;2023-07-20T09:39:53;98302.27;;;30.27;20.36
75945;BME280;64628;50.104;14.614;2023-07-20T09:42:21;98304.76;;;30.04;20.59
75945;BME280;64628;50.104;14.614;2023-07-20T09:44:45;98306.13;;;29.10;20.87
75945;BME280;64628;50.104;14.614;2023-07-20T09:47:11;98302.87;;;28.93;21.66
75945;BME280;64628;50.104;14.614;2023-07-20T09:49:39;98296.58;;;28.64;22.17
75945;BME280;64628;50.104;14.614;2023-07-20T09:52:02;98298.18;;;28.36;21.87
75945;BME280;64628;50.104;14.614;2023-07-20T09:54:29;98294.09;;;28.99;21.91
75945;BME280;64628;50.104;14.614;2023-07-20T09:56:54;98297.57;;;29.86;20.84
75945;BME280;64628;50.104;14.614;2023-07-20T09:59:19;98300.20;;;30.85;19.75
75945;BME280;64628;50.104;14.614;2023-07-20T10:01:46;98298.15;;;31.73;19.01
75945;BME280;64628;50.104;14.614;2023-07-20T10:04:11;98291.20;;;31.78;18.24
75945;BME280;64628;50.104;14.614;2023-07-20T10:06:41;98293.63;;;31.45;18.52
75945;BME280;64628;50.104;14.614;2023-07-20T10:09:03;98294.15;;;31.40;18.35
75945;BME280;64628;50.104;14.614;2023-07-20T10:11:31;98284.37;;;31.59;17.82
75945;BME280;64628;50.104;14.614;2023-07-20T10:13:54;98281.80;;;32.37;17.51
75945;BME280;64628;50.104;14.614;2023-07-20T10:16:26;98285.32;;;32.29;17.32
75945;BME280;64628;50.104;14.614;2023-07-20T10:18:51;98286.76;;;32.47;16.88
75945;BME280;64628;50.104;14.614;2023-07-20T10:21:10;98286.66;;;32.07;17.48
75945;BME280;64628;50.104;14.614;2023-07-20T10:23:36;98293.58;;;32.27;17.52
75945;BME280;64628;50.104;14.614;2023-07-20T10:26:02;98286.88;;;32.37;17.75
75945;BME280;64628;50.104;14.614;2023-07-20T10:28:28;98285.75;;;31.69;18.13
75945;BME280;64628;50.104;14.614;2023-07-20T10:30:53;98284.85;;;30.96;19.03
75945;BME280;64628;50.104;14.614;2023-07-20T10:33:19;98280.59;;;30.38;19.79
75945;BME280;64628;50.104;14.614;2023-07-20T10:35:50;98281.66;;;30.08;19.80
75945;BME280;64628;50.104;14.614;2023-07-20T10:38:10;98277.84;;;30.55;20.73
75945;BME280;64628;50.104;14.614;2023-07-20T10:40:38;98275.21;;;31.59;19.27
75945;BME280;64628;50.104;14.614;2023-07-20T10:43:03;98285.64;;;31.71;19.65
75945;BME280;64628;50.104;14.614;2023-07-20T10:45:35;98286.52;;;31.83;18.56
75945;BME280;64628;50.104;14.614;2023-07-20T10:47:56;98290.88;;;31.51;19.18
75945;BME280;64628;50.104;14.614;2023-07-20T10:50:22;98284.34;;;30.68;19.95
75945;BME280;64628;50.104;14.614;2023-07-20T10:55:11;98292.07;;;30.52;22.44
75945;BME280;64628;50.104;14.614;2023-07-20T10:57:35;98288.64;;;30.64;21.48
75945;BME280;64628;50.104;14.614;2023-07-20T11:00:10;98287.51;;;31.09;21.43
75945;BME280;64628;50.104;14.614;2023-07-20T11:02:26;98290.63;;;31.12;20.39
75945;BME280;64628;50.104;14.614;2023-07-20T11:04:53;98296.15;;;31.37;19.58
75945;BME280;64628;50.104;14.614;2023-07-20T11:07:35;98288.96;;;31.15;20.06
75945;BME280;64628;50.104;14.614;2023-07-20T11:09:44;98292.35;;;30.78;20.26
75945;BME280;64628;50.104;14.614;2023-07-20T11:12:10;98291.81;;;30.92;20.30
75945;BME280;64628;50.104;14.614;2023-07-20T11:14:40;98290.86;;;31.16;19.25
75945;BME280;64628;50.104;14.614;2023-07-20T11:17:11;98283.17;;;31.47;19.35
75945;BME280;64628;50.104;14.614;2023-07-20T11:19:26;98279.12;;;31.25;19.37
75945;BME280;64628;50.104;14.614;2023-07-20T11:21:53;98283.30;;;31.43;18.49
75945;BME280;64628;50.104;14.614;2023-07-20T11:24:18;98277.90;;;31.75;18.47
75945;BME280;64628;50.104;14.614;2023-07-20T11:26:44;98280.16;;;31.78;18.25
75945;BME280;64628;50.104;14.614;2023-07-20T11:29:09;98278.42;;;31.33;18.87
75945;BME280;64628;50.104;14.614;2023-07-20T11:31:37;98270.00;;;31.16;19.27
75945;BME280;64628;50.104;14.614;2023-07-20T11:34:00;98278.56;;;30.97;18.56
75945;BME280;64628;50.104;14.614;2023-07-20T11:36:26;98275.69;;;30.87;18.15
75945;BME280;64628;50.104;14.614;2023-07-20T11:38:52;98276.11;;;31.33;18.70
75945;BME280;64628;50.104;14.614;2023-07-20T11:41:17;98275.22;;;31.00;18.18
75945;BME280;64628;50.104;14.614;2023-07-20T11:43:43;98272.71;;;31.20;17.90
75945;BME280;64628;50.104;14.614;2023-07-20T11:46:09;98264.38;;;31.21;17.90
75945;BME280;64628;50.104;14.614;2023-07-20T11:48:34;98270.33;;;31.13;18.71
75945;BME280;64628;50.104;14.614;2023-07-20T11:50:59;98263.33;;;31.46;18.54
75945;BME280;64628;50.104;14.614;2023-07-20T11:53:25;98252.83;;;31.63;18.08
75945;BME280;64628;50.104;14.614;2023-07-20T11:55:51;98252.10;;;31.49;18.72
75945;BME280;64628;50.104;14.614;2023-07-20T11:58:17;98251.86;;;32.40;17.76
75945;BME280;64628;50.104;14.614;2023-07-20T12:00:44;98247.21;;;32.05;17.81
75945;BME280;64628;50.104;14.614;2023-07-20T12:03:07;98250.62;;;31.97;17.80
75945;BME280;64628;50.104;14.614;2023-07-20T12:05:33;98249.53;;;31.40;17.28
75945;BME280;64628;50.104;14.614;2023-07-20T12:07:59;98249.03;;;31.41;17.53
75945;BME280;64628;50.104;14.614;2023-07-20T12:10:25;98246.01;;;31.02;18.09
75945;BME280;64628;50.104;14.614;2023-07-20T12:12:50;98247.99;;;31.34;17.46
75945;BME280;64628;50.104;14.614;2023-07-20T12:15:17;98244.02;;;31.09;18.10
75945;BME280;64628;50.104;14.614;2023-07-20T12:17:43;98241.23;;;31.94;17.87
75945;BME280;64628;50.104;14.614;2023-07-20T12:20:09;98236.83;;;31.36;17.20
75945;BME280;64628;50.104;14.614;2023-07-20T12:22:38;98239.29;;;30.84;17.48
75945;BME280;64628;50.104;14.614;2023-07-20T12:24:58;98233.20;;;30.90;17.47
75945;BME280;64628;50.104;14.614;2023-07-20T12:27:28;98233.93;;;30.57;17.78
75945;BME280;64628;50.104;14.614;2023-07-20T12:29:50;98228.70;;;30.40;17.40
75945;BME280;64628;50.104;14.614;2023-07-20T12:34:43;98224.95;;;30.45;17.37
75945;BME280;64628;50.104;14.614;2023-07-20T12:37:07;98231.48;;;30.68;17.19
75945;BME280;64628;50.104;14.614;2023-07-20T12:39:33;98235.67;;;31.23;17.26
75945;BME280;64628;50.104;14.614;2023-07-20T12:42:05;98234.31;;;30.96;16.77
75945;BME280;64628;50.104;14.614;2023-07-20T12:44:24;98238.08;;;30.43;16.97